Time;durP1;ratioP1;P1;durP2;ratioP2;P2;SDS_P1;SDS_P2;PMS_P1;PMS_P2;Temp;Humidity;BMP_temperature;BMP_pressure;BME280_temperature;BME280_humidity;BME280_pressure;Samples;Min_cycle;Max_cycle;Signal;HPM_P1;HPM_P2
2023/12/16 00:01:19;;;;;;;36.60;21.50;;;;;;;3.53;95.96;102008.39;113229;239;40414;-56
2023/12/16 00:03:53;;;;;;;30.90;20.90;;;;;;;3.56;95.99;102012.45;112972;239;285893;-57
2023/12/16 00:06:27;;;;;;;33.40;20.60;;;;;;;3.56;96.06;102020.32;113200;239;41053;-53
2023/12/16 00:09:00;;;;;;;34.90;19.50;;;;;;;3.57;96.09;102017.21;113227;239;40160;-53
2023/12/16 00:11:35;;;;;;;34.30;19.10;;;;;;;3.59;96.01;102018.46;113271;239;39817;-56
2023/12/16 00:14:08;;;;;;;33.20;19.30;;;;;;;3.60;96.07;102022.51;113233;239;39983;-57
2023/12/16 00:16:47;;;;;;;32.70;19.90;;;;;;;3.62;95.99;102027.70;113193;239;39478;-57
2023/12/16 00:19:21;;;;;;;28.90;18.50;;;;;;;3.63;95.97;102027.99;113094;239;39787;-57
2023/12/16 00:21:55;;;;;;;32.90;19.70;;;;;;;3.65;95.95;102025.21;113015;239;39655;-56
2023/12/16 00:24:29;;;;;;;34.90;21.00;;;;;;;3.66;95.97;102015.55;113240;239;39473;-57
2023/12/16 00:27:03;;;;;;;32.50;19.00;;;;;;;3.64;96.01;102013.35;113227;239;39558;-54
2023/12/16 00:29:37;;;;;;;35.40;20.10;;;;;;;3.63;95.98;102013.19;113212;239;40541;-54
2023/12/16 00:32:11;;;;;;;35.90;20.80;;;;;;;3.66;96.08;102009.44;113265;239;39653;-56
2023/12/16 00:34:45;;;;;;;37.50;20.30;;;;;;;3.64;96.04;102014.07;113228;239;39766;-56
2023/12/16 00:37:19;;;;;;;39.60;21.30;;;;;;;3.62;96.09;102021.34;113240;239;40582;-56
2023/12/16 00:39:53;;;;;;;36.50;21.30;;;;;;;3.61;96.16;102027.93;113237;239;40914;-57
2023/12/16 00:42:27;;;;;;;38.70;21.00;;;;;;;3.64;96.22;102026.52;113239;239;40293;-53
2023/12/16 00:45:01;;;;;;;35.00;21.00;;;;;;;3.68;96.20;102024.07;113102;239;39255;-53
2023/12/16 00:47:35;;;;;;;38.20;22.30;;;;;;;3.71;96.13;102028.69;113135;239;39709;-56
2023/12/16 00:50:11;;;;;;;38.30;22.30;;;;;;;3.73;96.12;102034.79;113169;239;40317;-55
2023/12/16 00:52:44;;;;;;;42.50;24.60;;;;;;;3.75;96.12;102034.30;113172;239;39898;-55
2023/12/16 00:55:18;;;;;;;41.60;24.20;;;;;;;3.76;96.07;102033.13;113165;239;39905;-55
2023/12/16 00:57:52;;;;;;;42.50;23.20;;;;;;;3.74;96.15;102041.13;113174;239;39233;-52
2023/12/16 01:00:26;;;;;;;44.90;23.50;;;;;;;3.71;96.27;102040.09;113195;239;40075;-53
2023/12/16 01:03:00;;;;;;;46.90;26.40;;;;;;;3.74;96.28;102047.38;113173;239;39742;-55
2023/12/16 01:05:35;;;;;;;57.50;28.50;;;;;;;3.74;96.33;102055.40;113176;239;40532;-55
2023/12/16 01:08:08;;;;;;;48.90;26.10;;;;;;;3.72;96.38;102066.94;113201;239;39119;-56
2023/12/16 01:10:42;;;;;;;50.80;26.90;;;;;;;3.74;96.41;102064.09;113194;239;40436;-55
2023/12/16 01:13:17;;;;;;;48.80;26.90;;;;;;;3.70;96.54;102055.63;113148;239;39414;-55
2023/12/16 01:15:51;;;;;;;48.60;25.80;;;;;;;3.69;96.70;102050.89;113142;239;39285;-56
2023/12/16 01:18:25;;;;;;;50.60;26.60;;;;;;;3.70;96.77;102046.77;113145;239;41253;-56
2023/12/16 01:20:59;;;;;;;51.40;26.90;;;;;;;3.75;96.63;102049.61;113167;239;40424;-53
2023/12/16 01:23:33;;;;;;;50.00;26.00;;;;;;;3.77;96.57;102047.13;113176;239;40071;-53
2023/12/16 01:26:07;;;;;;;45.40;25.40;;;;;;;3.78;96.59;102043.84;113199;239;39994;-55
2023/12/16 01:28:42;;;;;;;50.70;27.10;;;;;;;3.81;96.52;102041.34;113176;239;40460;-55
2023/12/16 01:31:14;;;;;;;;;;;;;;;3.80;96.55;102035.52;113187;239;40634;-52
2023/12/16 01:33:48;;;;;;;52.40;26.80;;;;;;;3.81;96.53;102030.12;113172;239;39872;-52
2023/12/16 01:36:23;;;;;;;53.50;26.30;;;;;;;3.84;96.56;102022.41;113212;239;40677;-52
2023/12/16 01:38:57;;;;;;;51.60;27.30;;;;;;;3.85;96.60;102024.47;113224;239;39099;-52
2023/12/16 01:41:30;;;;;;;53.00;26.90;;;;;;;3.87;96.55;102031.48;113191;239;40753;-55
2023/12/16 01:44:05;;;;;;;46.40;26.00;;;;;;;3.88;96.55;102027.64;113164;239;39676;-55
2023/12/16 01:46:39;;;;;;;54.10;27.30;;;;;;;3.87;96.59;102036.64;113179;239;39312;-55
2023/12/16 01:49:13;;;;;;;50.50;26.00;;;;;;;3.87;96.69;102037.56;113195;239;40005;-56
2023/12/16 01:51:48;;;;;;;49.20;26.40;;;;;;;3.84;96.59;102048.25;113224;239;39915;-56
2023/12/16 01:54:21;;;;;;;;;;;;;;;3.85;96.81;102046.26;113221;239;40394;-56
2023/12/16 01:56:59;;;;;;;49.60;26.00;;;;;;;3.85;96.76;102047.29;113203;239;39288;-53
2023/12/16 01:59:33;;;;;;;51.40;26.60;;;;;;;3.85;96.90;102044.11;113172;239;40852;-53
2023/12/16 02:02:08;;;;;;;48.40;24.70;;;;;;;3.81;96.90;102042.75;113167;239;40359;-53
2023/12/16 02:04:43;;;;;;;48.60;24.60;;;;;;;3.77;97.00;102037.90;113154;239;40209;-53
2023/12/16 02:07:15;;;;;;;;;;;;;;;3.78;97.07;102036.61;113214;239;40638;-52
2023/12/16 02:09:49;;;;;;;50.60;24.10;;;;;;;3.78;97.09;102038.15;113196;239;40327;-52
2023/12/16 02:12:23;;;;;;;48.20;25.60;;;;;;;3.81;97.10;102039.75;113106;239;39357;-53
2023/12/16 02:14:57;;;;;;;48.80;23.50;;;;;;;3.83;97.12;102041.02;113164;239;39997;-53
2023/12/16 02:17:31;;;;;;;45.20;24.20;;;;;;;3.82;97.08;102044.11;113176;239;40143;-52
2023/12/16 02:20:06;;;;;;;43.10;23.40;;;;;;;3.85;97.15;102049.27;113177;239;39565;-52
2023/12/16 02:22:40;;;;;;;45.40;23.70;;;;;;;3.83;97.09;102052.82;113166;239;39052;-52
2023/12/16 02:25:15;;;;;;;48.90;23.60;;;;;;;3.83;97.17;102062.58;113190;239;39663;-53
2023/12/16 02:27:49;;;;;;;43.60;22.20;;;;;;;3.81;97.29;102067.17;113156;239;39532;-53
2023/12/16 02:30:24;;;;;;;46.70;23.00;;;;;;;3.84;97.21;102073.94;113171;239;40154;-54
2023/12/16 02:32:58;;;;;;;47.40;23.30;;;;;;;3.86;97.30;102073.95;113166;239;40816;-53
2023/12/16 02:35:33;;;;;;;50.70;23.90;;;;;;;3.88;97.18;102073.64;113185;239;39857;-55
2023/12/16 02:38:07;;;;;;;44.30;22.50;;;;;;;3.89;97.22;102070.00;113185;239;39494;-53
2023/12/16 02:40:42;;;;;;;44.10;22.90;;;;;;;3.91;97.20;102072.73;113155;239;40833;-54
2023/12/16 02:43:16;;;;;;;47.70;23.20;;;;;;;3.94;97.29;102071.29;113194;239;39330;-53
2023/12/16 02:45:50;;;;;;;45.30;22.50;;;;;;;3.95;97.29;102072.46;113186;239;38992;-54
2023/12/16 02:48:24;;;;;;;47.70;22.80;;;;;;;3.93;97.28;102071.35;113173;239;39653;-51
2023/12/16 02:50:57;;;;;;;44.00;21.70;;;;;;;3.97;97.20;102072.66;113162;239;39798;-57
2023/12/16 02:53:31;;;;;;;43.50;21.60;;;;;;;3.98;97.21;102069.40;113172;239;39587;-57
2023/12/16 02:56:06;;;;;;;43.20;23.20;;;;;;;3.96;97.25;102075.61;113174;239;39754;-57
2023/12/16 02:58:40;;;;;;;46.40;22.60;;;;;;;3.95;97.44;102074.06;113163;239;40353;-56
2023/12/16 03:01:14;;;;;;;45.80;21.30;;;;;;;3.96;97.35;102074.49;113185;239;39505;-57
2023/12/16 03:03:47;;;;;;;41.90;21.70;;;;;;;3.97;97.45;102066.42;113182;239;39725;-57
2023/12/16 03:06:21;;;;;;;45.70;21.70;;;;;;;3.97;97.48;102061.20;113190;239;39360;-54
2023/12/16 03:08:55;;;;;;;43.90;22.00;;;;;;;3.96;97.58;102048.10;113175;239;39597;-54
2023/12/16 03:11:29;;;;;;;37.90;21.10;;;;;;;3.98;97.47;102041.59;113137;239;40500;-56
2023/12/16 03:14:03;;;;;;;40.00;20.80;;;;;;;4.03;97.48;102038.17;113188;239;39583;-56
2023/12/16 03:16:37;;;;;;;46.70;22.70;;;;;;;4.04;97.42;102033.67;113161;239;40187;-53
2023/12/16 03:19:11;;;;;;;43.00;20.70;;;;;;;4.07;97.45;102032.19;113165;239;40788;-53
2023/12/16 03:21:43;;;;;;;;;;;;;;;4.05;97.38;102041.92;113126;239;39510;-56
2023/12/16 03:24:17;;;;;;;48.00;22.00;;;;;;;4.04;97.52;102047.17;113171;239;39938;-56
2023/12/16 03:26:51;;;;;;;42.40;21.60;;;;;;;4.03;97.54;102045.30;113139;239;39184;-54
2023/12/16 03:29:25;;;;;;;41.50;22.40;;;;;;;4.02;97.67;102050.77;113179;239;39601;-54
2023/12/16 03:31:59;;;;;;;48.40;22.20;;;;;;;4.07;97.73;102058.79;113165;239;39563;-54
2023/12/16 03:34:33;;;;;;;47.90;21.60;;;;;;;4.04;97.66;102065.94;113138;239;39701;-54
2023/12/16 03:37:07;;;;;;;46.70;24.20;;;;;;;4.01;97.79;102070.20;113172;239;39755;-54
2023/12/16 03:39:43;;;;;;;44.00;21.30;;;;;;;4.02;97.74;102064.79;113120;239;39827;-52
2023/12/16 03:42:17;;;;;;;41.10;20.60;;;;;;;4.07;97.68;102056.23;113146;239;40943;-53
2023/12/16 03:44:51;;;;;;;43.10;20.80;;;;;;;4.06;97.67;102045.84;113135;239;40370;-53
2023/12/16 03:47:25;;;;;;;45.40;20.80;;;;;;;4.06;97.81;102037.98;113140;239;39832;-53
2023/12/16 03:49:59;;;;;;;42.40;20.60;;;;;;;4.03;97.91;102040.84;113131;239;39290;-52
2023/12/16 03:52:33;;;;;;;42.70;21.10;;;;;;;3.97;97.88;102042.55;113158;239;40574;-57
2023/12/16 03:55:08;;;;;;;41.60;20.70;;;;;;;4.00;97.96;102045.88;113145;239;39447;-57
2023/12/16 03:57:42;;;;;;;44.30;20.90;;;;;;;4.02;98.04;102055.52;113253;239;39704;-57
2023/12/16 04:00:18;;;;;;;39.00;19.50;;;;;;;4.01;98.08;102059.88;113239;239;39079;-57
2023/12/16 04:02:52;;;;;;;40.00;20.30;;;;;;;4.03;98.22;102059.22;113245;239;40017;-52
2023/12/16 04:05:26;;;;;;;42.00;20.40;;;;;;;4.03;98.09;102062.44;113218;239;39914;-54
2023/12/16 04:08:00;;;;;;;37.60;20.10;;;;;;;4.03;98.25;102060.30;113242;239;40405;-56
2023/12/16 04:10:34;;;;;;;39.10;20.50;;;;;;;4.04;98.19;102058.95;113292;239;41027;-54
2023/12/16 04:13:08;;;;;;;41.40;19.30;;;;;;;4.05;98.24;102062.99;113194;239;40071;-54
2023/12/16 04:15:42;;;;;;;39.60;19.80;;;;;;;4.06;98.32;102060.22;113271;239;40093;-55
2023/12/16 04:18:15;;;;;;;42.60;20.80;;;;;;;4.08;98.37;102061.92;113212;239;39375;-57
2023/12/16 04:20:49;;;;;;;38.20;19.00;;;;;;;4.09;98.34;102057.21;113153;239;40669;-54
2023/12/16 04:23:23;;;;;;;40.70;19.90;;;;;;;4.06;98.72;102057.56;113177;239;40365;-54
2023/12/16 04:25:57;;;;;;;41.00;20.50;;;;;;;4.08;98.53;102057.97;113194;239;39479;-56
2023/12/16 04:28:31;;;;;;;38.00;18.50;;;;;;;4.14;98.64;102057.00;113196;239;40070;-56
2023/12/16 04:31:05;;;;;;;38.60;20.30;;;;;;;4.16;98.66;102063.25;113160;239;39925;-57
2023/12/16 04:33:39;;;;;;;43.10;21.10;;;;;;;4.16;98.77;102064.55;113204;239;39498;-57
2023/12/16 04:36:17;;;;;;;36.70;19.60;;;;;;;4.16;98.66;102071.46;113201;239;39617;-57
2023/12/16 04:38:51;;;;;;;37.60;20.10;;;;;;;4.15;98.81;102072.11;113184;239;41064;-57
2023/12/16 04:41:25;;;;;;;39.20;20.20;;;;;;;4.15;98.83;102080.98;113212;239;41753;-55
2023/12/16 04:43:59;;;;;;;40.00;20.10;;;;;;;4.18;98.88;102085.09;113171;239;39905;-55
2023/12/16 04:46:33;;;;;;;38.30;21.10;;;;;;;4.19;98.88;102090.38;113190;239;41221;-56
2023/12/16 04:49:07;;;;;;;39.00;20.00;;;;;;;4.18;98.88;102091.83;113126;239;40557;-54
2023/12/16 04:51:41;;;;;;;37.10;19.80;;;;;;;4.18;99.05;102093.44;113179;239;39969;-52
2023/12/16 04:54:15;;;;;;;39.10;21.10;;;;;;;4.22;99.06;102091.23;113186;239;39442;-53
2023/12/16 04:56:49;;;;;;;34.20;18.20;;;;;;;4.24;99.05;102092.15;113182;239;40689;-54
2023/12/16 04:59:23;;;;;;;32.10;18.10;;;;;;;4.24;99.00;102095.54;113207;239;39774;-56
2023/12/16 05:01:56;;;;;;;37.60;18.90;;;;;;;4.21;99.41;102104.16;113180;239;40232;-54
2023/12/16 05:04:30;;;;;;;37.70;19.80;;;;;;;4.21;99.36;102101.49;113167;239;39993;-54
2023/12/16 05:07:04;;;;;;;35.20;19.50;;;;;;;4.24;99.31;102104.83;113039;239;39351;-54
2023/12/16 05:09:38;;;;;;;35.10;20.60;;;;;;;4.26;99.35;102100.23;113192;239;40783;-54
2023/12/16 05:12:12;;;;;;;38.20;20.10;;;;;;;4.30;99.40;102100.33;113207;239;40138;-54
2023/12/16 05:14:46;;;;;;;34.90;18.90;;;;;;;4.32;99.34;102099.96;113205;239;39749;-54
2023/12/16 05:17:22;;;;;;;34.40;18.30;;;;;;;4.31;99.36;102100.95;113192;239;39562;-54
2023/12/16 05:19:56;;;;;;;34.20;18.80;;;;;;;4.35;99.43;102099.25;113169;239;39708;-54
2023/12/16 05:22:33;;;;;;;35.10;18.70;;;;;;;4.36;99.35;102095.41;113201;239;40147;-56
2023/12/16 05:25:08;;;;;;;32.00;17.50;;;;;;;4.36;99.36;102097.89;113181;239;39961;-57
2023/12/16 05:27:42;;;;;;;33.50;17.70;;;;;;;4.36;99.44;102097.73;113197;239;39371;-57
2023/12/16 05:30:17;;;;;;;31.40;17.10;;;;;;;4.38;99.51;102100.79;113196;239;39610;-57
2023/12/16 05:32:51;;;;;;;33.50;16.40;;;;;;;4.37;99.59;102103.39;113191;239;39862;-54
2023/12/16 05:35:25;;;;;;;29.00;15.90;;;;;;;4.37;99.67;102106.61;113192;239;39218;-54
2023/12/16 05:37:59;;;;;;;35.30;17.70;;;;;;;4.41;99.58;102102.69;113171;239;40309;-52
2023/12/16 05:40:33;;;;;;;23.90;13.40;;;;;;;4.44;99.65;102102.48;113193;239;39928;-55
2023/12/16 05:43:07;;;;;;;32.50;17.70;;;;;;;4.49;99.60;102106.28;113196;239;39114;-53
2023/12/16 05:45:41;;;;;;;30.10;16.50;;;;;;;4.50;99.53;102103.68;113193;239;41691;-52
2023/12/16 05:48:15;;;;;;;28.90;16.80;;;;;;;4.50;99.59;102107.40;113189;239;40810;-52
2023/12/16 05:50:49;;;;;;;28.10;15.60;;;;;;;4.49;99.63;102109.27;113185;239;39048;-55
2023/12/16 05:53:22;;;;;;;30.00;16.10;;;;;;;4.51;99.60;102107.67;113192;239;39377;-55
2023/12/16 05:55:56;;;;;;;29.60;16.10;;;;;;;4.52;99.76;102109.09;113195;239;39979;-55
2023/12/16 05:58:30;;;;;;;28.40;15.90;;;;;;;4.53;99.73;102109.68;113212;239;39001;-56
2023/12/16 06:01:07;;;;;;;26.50;15.50;;;;;;;4.55;99.67;102101.57;113202;239;39653;-55
2023/12/16 06:03:41;;;;;;;29.80;15.40;;;;;;;4.54;99.70;102102.66;113189;239;41240;-54
2023/12/16 06:06:15;;;;;;;27.10;16.10;;;;;;;4.56;99.79;102102.67;113177;239;40692;-53
2023/12/16 06:08:47;;;;;;;;;;;;;;;4.57;99.81;102106.20;113190;239;39237;-53
2023/12/16 06:11:22;;;;;;;23.50;14.50;;;;;;;4.59;99.86;102106.27;113090;239;41181;-52
2023/12/16 06:13:56;;;;;;;28.70;15.10;;;;;;;4.60;99.81;102105.96;113191;239;40333;-52
2023/12/16 06:16:30;;;;;;;28.50;15.90;;;;;;;4.62;99.79;102110.13;113166;239;40285;-55
2023/12/16 06:19:04;;;;;;;25.80;15.50;;;;;;;4.63;99.86;102110.06;113147;239;39760;-55
2023/12/16 06:21:38;;;;;;;25.60;14.90;;;;;;;4.64;99.82;102113.36;113154;239;40654;-56
2023/12/16 06:24:12;;;;;;;27.80;15.10;;;;;;;4.67;99.88;102118.52;113181;239;39887;-56
2023/12/16 06:26:47;;;;;;;29.20;16.10;;;;;;;4.67;99.81;102116.76;113168;239;39093;-56
2023/12/16 06:29:19;;;;;;;;;;;;;;;4.66;99.86;102117.52;113138;239;40381;-56
2023/12/16 06:31:53;;;;;;;26.70;15.10;;;;;;;4.65;99.94;102119.40;113160;239;39252;-55
2023/12/16 06:34:27;;;;;;;25.40;15.80;;;;;;;4.66;99.85;102126.05;113156;239;38933;-55
2023/12/16 06:37:00;;;;;;;29.10;14.80;;;;;;;4.67;99.87;102126.52;113155;239;40587;-55
2023/12/16 06:39:34;;;;;;;28.80;15.80;;;;;;;4.70;99.87;102127.38;113142;239;39061;-55
2023/12/16 06:42:09;;;;;;;26.50;15.20;;;;;;;4.72;99.94;102133.98;113184;239;39813;-52
2023/12/16 06:44:43;;;;;;;26.20;15.20;;;;;;;4.72;99.93;102142.75;113122;239;39360;-52
2023/12/16 06:47:17;;;;;;;25.20;14.80;;;;;;;4.71;99.97;102144.05;113175;239;39573;-53
2023/12/16 06:49:51;;;;;;;25.60;15.30;;;;;;;4.74;99.98;102145.81;113144;239;40766;-52
2023/12/16 06:52:24;;;;;;;30.90;15.10;;;;;;;4.77;99.97;102141.48;113156;239;39173;-56
2023/12/16 06:54:58;;;;;;;28.30;15.50;;;;;;;4.77;99.90;102133.67;113150;239;40174;-56
2023/12/16 06:57:32;;;;;;;27.70;16.00;;;;;;;4.77;99.99;102130.98;113122;239;40008;-52
2023/12/16 07:00:09;;;;;;;25.10;15.10;;;;;;;4.82;99.95;102135.86;113104;239;40014;-52
2023/12/16 07:02:43;;;;;;;25.40;14.70;;;;;;;4.85;99.99;102138.61;113141;239;41049;-53
2023/12/16 07:05:17;;;;;;;28.00;16.30;;;;;;;4.83;99.98;102147.16;113169;239;39875;-53
2023/12/16 07:07:51;;;;;;;25.70;15.00;;;;;;;4.86;99.99;102150.38;113140;239;40667;-52
2023/12/16 07:10:25;;;;;;;24.70;15.10;;;;;;;4.86;99.98;102149.45;113152;239;39995;-52
2023/12/16 07:12:59;;;;;;;29.20;16.00;;;;;;;4.87;100.00;102146.66;113151;239;39368;-53
2023/12/16 07:15:33;;;;;;;24.40;14.90;;;;;;;4.89;99.99;102145.82;113182;239;40036;-53
2023/12/16 07:18:07;;;;;;;28.20;15.70;;;;;;;4.85;100.00;102146.52;113138;238;39529;-53
2023/12/16 07:20:41;;;;;;;30.60;16.50;;;;;;;4.88;100.00;102145.19;113171;239;40216;-55
2023/12/16 07:23:15;;;;;;;28.60;16.80;;;;;;;4.92;100.00;102148.46;113169;239;40276;-56
2023/12/16 07:25:50;;;;;;;30.00;16.20;;;;;;;4.93;99.98;102151.80;113137;239;39050;-56
2023/12/16 07:28:24;;;;;;;29.00;16.40;;;;;;;4.95;99.99;102153.95;113143;239;40913;-56
2023/12/16 07:30:59;;;;;;;31.80;18.00;;;;;;;4.99;99.99;102152.64;113126;239;39489;-56
2023/12/16 07:33:31;;;;;;;;;;;;;;;5.00;99.97;102151.48;113151;239;40017;-57
2023/12/16 07:36:06;;;;;;;25.00;14.50;;;;;;;4.97;100.00;102150.59;113146;239;38882;-56
2023/12/16 07:38:38;;;;;;;;;;;;;;;4.97;100.00;102149.00;113169;239;39415;-56
2023/12/16 07:41:12;;;;;;;26.60;14.90;;;;;;;4.99;100.00;102149.95;113143;239;39797;-53
2023/12/16 07:43:46;;;;;;;26.30;17.00;;;;;;;4.99;100.00;102150.84;113165;239;39142;-53
2023/12/16 07:46:20;;;;;;;26.50;15.40;;;;;;;5.03;100.00;102150.52;113132;239;41438;-53
2023/12/16 07:48:53;;;;;;;28.30;15.60;;;;;;;5.06;100.00;102149.77;113132;239;39393;-53
2023/12/16 07:51:27;;;;;;;28.60;15.80;;;;;;;5.13;100.00;102144.59;113142;239;39760;-55
2023/12/16 07:54:02;;;;;;;29.90;17.70;;;;;;;5.21;100.00;102141.00;113163;239;39676;-55
2023/12/16 07:56:36;;;;;;;27.70;16.10;;;;;;;5.26;100.00;102147.39;113122;239;41192;-55
2023/12/16 07:59:10;;;;;;;25.10;15.50;;;;;;;5.29;100.00;102151.98;113258;239;39631;-55
2023/12/16 08:01:48;;;;;;;26.70;16.50;;;;;;;5.39;100.00;102147.29;113210;239;39721;-52
2023/12/16 08:04:23;;;;;;;24.70;14.30;;;;;;;5.46;100.00;102153.59;112936;239;210767;-52
2023/12/16 08:06:57;;;;;;;24.30;14.60;;;;;;;5.52;100.00;102150.44;113245;239;39215;-55
2023/12/16 08:09:31;;;;;;;24.30;14.20;;;;;;;5.54;100.00;102155.35;113267;239;41187;-55
2023/12/16 08:12:05;;;;;;;27.70;14.80;;;;;;;5.56;100.00;102158.36;113260;239;40785;-52
2023/12/16 08:14:39;;;;;;;22.30;13.90;;;;;;;5.54;100.00;102158.88;113261;239;39781;-52
2023/12/16 08:17:13;;;;;;;24.30;13.40;;;;;;;5.59;100.00;102162.79;113237;239;39535;-55
2023/12/16 08:19:47;;;;;;;23.30;13.90;;;;;;;5.60;99.95;102167.38;113257;239;39030;-55
2023/12/16 08:22:22;;;;;;;21.40;12.40;;;;;;;5.62;99.89;102169.88;113216;239;39072;-52
2023/12/16 08:24:54;;;;;;;;;;;;;;;5.64;99.52;102169.56;113273;239;38824;-53
2023/12/16 08:27:28;;;;;;;22.60;12.00;;;;;;;5.64;99.37;102163.14;113265;239;40977;-57
2023/12/16 08:30:02;;;;;;;24.50;11.60;;;;;;;5.75;99.22;102163.36;113123;240;39303;-60
2023/12/16 08:32:36;;;;;;;23.60;11.10;;;;;;;6.20;99.12;102171.90;113131;240;40321;-57
2023/12/16 08:35:11;;;;;;;21.20;10.10;;;;;;;6.56;98.60;102171.39;113105;240;39447;-57
2023/12/16 08:37:46;;;;;;;19.40;10.30;;;;;;;6.61;98.16;102170.86;113131;239;40049;-54
2023/12/16 08:40:21;;;;;;;20.30;10.90;;;;;;;6.52;98.16;102172.63;113169;240;40531;-54
2023/12/16 08:42:55;;;;;;;17.70;9.30;;;;;;;6.44;98.13;102173.58;113158;240;39311;-53
2023/12/16 08:45:30;;;;;;;16.90;8.80;;;;;;;6.39;98.00;102172.77;113161;240;39697;-53
2023/12/16 08:48:02;;;;;;;;;;;;;;;6.36;97.97;102167.79;113141;240;39909;-57
2023/12/16 08:50:36;;;;;;;20.60;9.50;;;;;;;6.33;97.95;102169.79;113140;240;41103;-53
2023/12/16 08:53:14;;;;;;;20.10;9.30;;;;;;;6.37;98.02;102172.89;113156;240;40425;-53
2023/12/16 08:55:48;;;;;;;24.30;9.40;;;;;;;6.66;97.64;102170.64;113141;240;40685;-57
2023/12/16 08:58:22;;;;;;;18.90;9.10;;;;;;;6.73;97.35;102170.24;113113;240;39859;-57
2023/12/16 09:00:58;;;;;;;20.60;10.20;;;;;;;6.97;97.63;102172.05;113138;240;39785;-54
2023/12/16 09:03:32;;;;;;;17.40;10.50;;;;;;;7.30;97.41;102182.07;113137;240;39158;-53
2023/12/16 09:06:07;;;;;;;19.90;11.90;;;;;;;7.46;96.83;102188.05;113138;239;39484;-63
2023/12/16 09:08:42;;;;;;;23.00;13.70;;;;;;;7.50;96.08;102186.85;113136;240;39327;-57
2023/12/16 09:11:16;;;;;;;25.50;14.70;;;;;;;7.35;95.33;102182.19;113106;240;40113;-54
2023/12/16 09:13:50;;;;;;;26.00;15.20;;;;;;;7.20;95.46;102179.48;113127;239;40374;-54
2023/12/16 09:16:24;;;;;;;27.70;16.20;;;;;;;7.06;95.45;102179.34;113139;240;40672;-56
2023/12/16 09:18:58;;;;;;;25.90;14.70;;;;;;;7.01;95.61;102187.86;113113;240;38927;-56
2023/12/16 09:21:31;;;;;;;28.30;15.20;;;;;;;6.94;95.54;102198.64;113138;240;41410;-56
2023/12/16 09:24:07;;;;;;;28.10;15.80;;;;;;;6.87;95.65;102196.54;113123;240;39133;-57
2023/12/16 09:26:40;;;;;;;27.30;15.50;;;;;;;6.76;95.65;102203.10;113129;239;39365;-54
2023/12/16 09:29:15;;;;;;;26.60;15.20;;;;;;;6.72;95.59;102201.66;113133;239;39586;-54
2023/12/16 09:31:47;;;;;;;;;;;;;;;6.72;95.59;102200.43;113195;239;39656;-53
2023/12/16 09:34:21;;;;;;;24.90;13.80;;;;;;;6.70;95.61;102201.97;113136;239;39663;-53
2023/12/16 09:36:55;;;;;;;27.70;14.20;;;;;;;6.67;95.84;102201.91;113146;239;39709;-53
2023/12/16 09:39:30;;;;;;;29.60;14.60;;;;;;;6.67;95.56;102200.29;113192;239;40808;-53
2023/12/16 09:42:05;;;;;;;27.60;15.10;;;;;;;6.60;95.68;102201.70;113154;239;38988;-56
2023/12/16 09:44:41;;;;;;;30.50;15.20;;;;;;;6.60;95.89;102200.30;113190;239;39246;-55
2023/12/16 09:47:16;;;;;;;29.60;13.60;;;;;;;6.62;95.96;102199.77;113161;239;40292;-56
2023/12/16 09:49:50;;;;;;;;;;;;;;;6.63;95.81;102200.57;113171;239;40613;-56
2023/12/16 09:52:24;;;;;;;27.70;14.20;;;;;;;6.62;95.82;102201.80;113130;239;39419;-54
2023/12/16 09:54:59;;;;;;;25.50;13.40;;;;;;;6.63;95.63;102197.52;113133;239;39002;-53
2023/12/16 09:57:35;;;;;;;22.60;13.10;;;;;;;6.58;95.55;102190.25;113163;239;39489;-56
2023/12/16 10:00:13;;;;;;;21.20;11.30;;;;;;;6.58;95.55;102190.41;113142;239;39296;-56
2023/12/16 10:02:51;;;;;;;24.40;12.90;;;;;;;6.60;95.34;102191.88;113153;239;40969;-54
2023/12/16 10:05:28;;;;;;;23.70;11.80;;;;;;;6.66;95.40;102189.27;113137;239;39875;-53
2023/12/16 10:08:06;;;;;;;23.40;12.00;;;;;;;6.68;95.46;102189.83;113162;239;40283;-55
2023/12/16 10:10:40;;;;;;;25.80;12.50;;;;;;;6.67;95.45;102188.24;113143;239;40619;-55
2023/12/16 10:13:14;;;;;;;24.00;12.90;;;;;;;6.69;95.37;102187.22;113167;239;40633;-63
2023/12/16 10:15:48;;;;;;;24.40;10.60;;;;;;;6.71;95.29;102185.78;113162;239;40654;-56
2023/12/16 10:18:22;;;;;;;23.10;11.60;;;;;;;6.75;95.29;102189.25;113180;239;39773;-56
2023/12/16 10:20:56;;;;;;;20.20;9.80;;;;;;;6.78;95.18;102190.65;113180;239;39143;-54
2023/12/16 10:23:30;;;;;;;23.10;10.70;;;;;;;6.79;95.21;102179.59;113179;239;39623;-54
2023/12/16 10:26:04;;;;;;;20.50;10.40;;;;;;;6.84;95.09;102173.15;113159;239;39176;-56
2023/12/16 10:28:40;;;;;;;20.40;9.80;;;;;;;6.88;95.22;102172.77;113191;239;39863;-57
2023/12/16 10:31:15;;;;;;;21.00;10.10;;;;;;;6.95;95.13;102171.88;113151;239;39829;-53
2023/12/16 10:33:49;;;;;;;18.70;9.30;;;;;;;7.04;95.33;102168.26;113140;239;39885;-53
2023/12/16 10:36:23;;;;;;;20.60;13.10;;;;;;;7.14;95.17;102176.40;113155;239;39394;-57
2023/12/16 10:38:57;;;;;;;21.00;11.50;;;;;;;7.19;94.97;102168.84;113138;239;41246;-57
2023/12/16 10:41:31;;;;;;;22.20;12.90;;;;;;;7.17;94.79;102167.02;113172;239;38863;-54
2023/12/16 10:44:05;;;;;;;18.80;12.20;;;;;;;7.15;94.44;102166.65;113166;239;41380;-54
2023/12/16 10:46:42;;;;;;;23.90;12.80;;;;;;;7.08;94.55;102167.20;113151;239;39640;-57
2023/12/16 10:49:18;;;;;;;25.40;13.80;;;;;;;7.03;94.47;102163.87;113134;239;40863;-57
2023/12/16 10:51:59;;;;;;;24.80;13.70;;;;;;;6.99;94.30;102160.27;113181;239;39661;-57
2023/12/16 10:54:42;;;;;;;23.70;13.90;;;;;;;6.96;94.18;102158.48;113145;239;39390;-56
2023/12/16 10:57:37;;;;;;;28.50;14.00;;;;;;;6.93;94.29;102154.31;113152;239;39950;-53
2023/12/16 11:00:20;;;;;;;26.90;15.60;;;;;;;6.90;94.27;102148.99;113027;239;40283;-52
2023/12/16 11:03:08;;;;;;;30.50;16.10;;;;;;;6.87;94.09;102145.48;113137;239;40812;-52
2023/12/16 11:05:50;;;;;;;32.80;18.20;;;;;;;6.85;94.13;102147.25;113143;239;39545;-55
2023/12/16 11:08:25;;;;;;;37.80;20.40;;;;;;;6.79;94.24;102143.11;113129;238;39599;-57
2023/12/16 11:11:01;;;;;;;30.20;17.90;;;;;;;6.80;94.34;102137.67;113089;239;40264;-56
2023/12/16 11:13:35;;;;;;;29.80;17.10;;;;;;;6.75;94.28;102141.80;113107;239;39320;-57
2023/12/16 11:16:16;;;;;;;28.20;16.30;;;;;;;6.72;94.20;102134.70;113165;239;39351;-56
2023/12/16 11:18:52;;;;;;;29.10;17.00;;;;;;;6.72;94.39;102133.09;113130;239;39952;-56
2023/12/16 11:21:28;;;;;;;30.10;17.70;;;;;;;6.78;94.47;102124.36;113130;239;41020;-54
2023/12/16 11:24:04;;;;;;;30.60;16.30;;;;;;;6.79;94.18;102115.83;113133;239;39028;-54
2023/12/16 11:26:38;;;;;;;29.60;17.40;;;;;;;6.84;94.17;102108.48;113142;239;39471;-53
2023/12/16 11:29:14;;;;;;;29.90;16.70;;;;;;;6.87;94.17;102111.43;113129;239;40130;-53
2023/12/16 11:31:53;;;;;;;25.30;16.60;;;;;;;6.92;94.13;102113.86;113148;239;41114;-56
2023/12/16 11:34:49;;;;;;;27.20;16.70;;;;;;;6.96;94.19;102112.89;113154;238;39823;-56
2023/12/16 11:37:46;;;;;;;31.40;16.50;;;;;;;6.97;94.04;102116.50;113118;239;39616;-53
2023/12/16 11:40:43;;;;;;;25.10;16.10;;;;;;;6.99;94.09;102118.67;113174;238;40588;-53
2023/12/16 11:43:17;;;;;;;28.80;17.00;;;;;;;7.00;94.21;102122.55;113129;239;39445;-56
2023/12/16 11:45:51;;;;;;;28.00;18.00;;;;;;;7.00;94.16;102122.59;113136;239;40718;-56
2023/12/16 11:48:26;;;;;;;28.60;17.00;;;;;;;6.99;94.20;102122.06;113168;239;39440;-56
2023/12/16 11:50:58;;;;;;;;;;;;;;;6.98;94.37;102119.89;113121;239;39767;-53
2023/12/16 11:53:32;;;;;;;27.00;15.20;;;;;;;6.92;94.32;102120.69;113139;239;40008;-53